sensor_id;sensor_type;location;lat;lon;timestamp;pressure;altitude;pressure_sealevel;temperature;humidity
26563;BME280;14217;50.986;5.826;2023-11-19T00:01:05;100395.97;;;18.07;48.33
26563;BME280;14217;50.986;5.826;2023-11-19T00:06:07;100402.84;;;18.11;48.31
26563;BME280;14217;50.986;5.826;2023-11-19T00:11:11;100400.25;;;18.10;48.40
26563;BME280;14217;50.986;5.826;2023-11-19T00:16:17;100394.88;;;18.11;48.40
26563;BME280;14217;50.986;5.826;2023-11-19T00:21:19;100398.16;;;18.16;48.17
26563;BME280;14217;50.986;5.826;2023-11-19T00:26:21;100397.59;;;18.10;48.42
26563;BME280;14217;50.986;5.826;2023-11-19T00:31:23;100400.25;;;18.10;48.16
26563;BME280;14217;50.986;5.826;2023-11-19T00:36:25;100401.97;;;18.11;48.40
26563;BME280;14217;50.986;5.826;2023-11-19T00:41:27;100394.88;;;18.11;48.50
26563;BME280;14217;50.986;5.826;2023-11-19T00:46:29;100381.69;;;18.10;48.33
26563;BME280;14217;50.986;5.826;2023-11-19T00:51:31;100371.09;;;18.10;48.59
26563;BME280;14217;50.986;5.826;2023-11-19T00:56:34;100381.84;;;18.06;48.69
26563;BME280;14217;50.986;5.826;2023-11-19T01:01:36;100375.38;;;18.12;48.48
26563;BME280;14217;50.986;5.826;2023-11-19T01:06:38;100380.91;;;18.07;48.64
26563;BME280;14217;50.986;5.826;2023-11-19T01:11:50;100378.88;;;18.13;48.48
26563;BME280;14217;50.986;5.826;2023-11-19T01:16:52;100374.66;;;18.08;48.56
26563;BME280;14217;50.986;5.826;2023-11-19T01:21:56;100393.09;;;18.12;48.60
26563;BME280;14217;50.986;5.826;2023-11-19T01:26:59;100383.41;;;18.11;48.49
26563;BME280;14217;50.986;5.826;2023-11-19T01:32:02;100380.84;;;18.09;48.53
26563;BME280;14217;50.986;5.826;2023-11-19T01:37:04;100390.38;;;18.13;48.33
26563;BME280;14217;50.986;5.826;2023-11-19T01:42:06;100378.97;;;18.11;48.60
26563;BME280;14217;50.986;5.826;2023-11-19T01:47:08;100350.66;;;18.12;48.48
26563;BME280;14217;50.986;5.826;2023-11-19T01:52:10;100329.38;;;18.13;48.59
26563;BME280;14217;50.986;5.826;2023-11-19T01:57:13;100340.13;;;18.10;48.64
26563;BME280;14217;50.986;5.826;2023-11-19T02:02:15;100331.09;;;18.14;48.65
26563;BME280;14217;50.986;5.826;2023-11-19T02:07:19;100344.34;;;18.14;48.73
26563;BME280;14217;50.986;5.826;2023-11-19T02:12:22;100343.63;;;18.11;48.88
26563;BME280;14217;50.986;5.826;2023-11-19T02:17:28;100339.09;;;18.13;48.66
26563;BME280;14217;50.986;5.826;2023-11-19T02:22:30;100345.19;;;18.15;48.70
26563;BME280;14217;50.986;5.826;2023-11-19T02:27:57;100335.53;;;18.14;48.55
26563;BME280;14217;50.986;5.826;2023-11-19T02:33:01;100333.91;;;18.11;48.69
26563;BME280;14217;50.986;5.826;2023-11-19T02:38:07;100340.00;;;18.13;48.58
26563;BME280;14217;50.986;5.826;2023-11-19T02:43:10;100336.16;;;18.19;48.59
26563;BME280;14217;50.986;5.826;2023-11-19T02:48:12;100344.41;;;18.13;49.04
26563;BME280;14217;50.986;5.826;2023-11-19T02:53:16;100333.91;;;18.11;49.20
26563;BME280;14217;50.986;5.826;2023-11-19T02:58:18;100319.63;;;18.14;48.98
26563;BME280;14217;50.986;5.826;2023-11-19T03:03:26;100341.63;;;18.16;49.11
26563;BME280;14217;50.986;5.826;2023-11-19T03:08:40;100338.19;;;18.14;48.82
26563;BME280;14217;50.986;5.826;2023-11-19T03:13:42;100329.28;;;18.15;49.14
26563;BME280;14217;50.986;5.826;2023-11-19T03:18:44;100327.66;;;18.12;49.18
26563;BME280;14217;50.986;5.826;2023-11-19T03:23:46;100316.03;;;18.15;48.93
26563;BME280;14217;50.986;5.826;2023-11-19T03:28:48;100330.31;;;18.12;49.01
26563;BME280;14217;50.986;5.826;2023-11-19T03:33:50;100323.06;;;18.16;49.02
26563;BME280;14217;50.986;5.826;2023-11-19T03:38:52;100338.97;;;18.16;48.93
26563;BME280;14217;50.986;5.826;2023-11-19T03:43:55;100333.66;;;18.16;48.87
26563;BME280;14217;50.986;5.826;2023-11-19T03:48:58;100331.94;;;18.15;48.93
26563;BME280;14217;50.986;5.826;2023-11-19T03:54:00;100331.16;;;18.13;49.05
26563;BME280;14217;50.986;5.826;2023-11-19T03:59:02;100322.28;;;18.14;49.11
26563;BME280;14217;50.986;5.826;2023-11-19T04:04:05;100323.97;;;18.15;49.18
26563;BME280;14217;50.986;5.826;2023-11-19T04:09:08;100324.94;;;18.14;49.13
26563;BME280;14217;50.986;5.826;2023-11-19T04:14:11;100344.19;;;18.17;49.20
26563;BME280;14217;50.986;5.826;2023-11-19T04:19:13;100349.41;;;18.19;48.95
26563;BME280;14217;50.986;5.826;2023-11-19T04:24:15;100339.88;;;18.15;49.03
26563;BME280;14217;50.986;5.826;2023-11-19T04:29:17;100354.09;;;18.14;49.29
26563;BME280;14217;50.986;5.826;2023-11-19T04:34:19;100355.50;;;18.21;49.00
26563;BME280;14217;50.986;5.826;2023-11-19T04:39:22;100355.78;;;18.15;48.96
26563;BME280;14217;50.986;5.826;2023-11-19T04:44:24;100359.34;;;18.15;49.12
26563;BME280;14217;50.986;5.826;2023-11-19T04:49:26;100361.97;;;18.15;49.30
26563;BME280;14217;50.986;5.826;2023-11-19T04:54:29;100364.53;;;18.17;49.29
26563;BME280;14217;50.986;5.826;2023-11-19T04:59:34;100378.03;;;18.12;49.32
26563;BME280;14217;50.986;5.826;2023-11-19T05:04:36;100364.41;;;18.20;49.28
26563;BME280;14217;50.986;5.826;2023-11-19T05:09:39;100374.22;;;18.18;49.02
26563;BME280;14217;50.986;5.826;2023-11-19T05:14:42;100380.13;;;18.23;49.18
26563;BME280;14217;50.986;5.826;2023-11-19T05:19:51;100393.47;;;18.21;48.95
26563;BME280;14217;50.986;5.826;2023-11-19T05:24:53;100391.03;;;18.17;49.28
26563;BME280;14217;50.986;5.826;2023-11-19T05:29:55;100383.88;;;18.19;49.18
26563;BME280;14217;50.986;5.826;2023-11-19T05:34:57;100395.56;;;18.15;49.47
26563;BME280;14217;50.986;5.826;2023-11-19T05:39:59;100389.34;;;18.16;49.41
26563;BME280;14217;50.986;5.826;2023-11-19T05:45:05;100395.50;;;18.16;49.40
26563;BME280;14217;50.986;5.826;2023-11-19T05:50:08;100398.22;;;18.15;49.47
26563;BME280;14217;50.986;5.826;2023-11-19T05:55:10;100395.56;;;18.15;49.26
26563;BME280;14217;50.986;5.826;2023-11-19T06:00:13;100394.72;;;18.14;49.14
26563;BME280;14217;50.986;5.826;2023-11-19T06:05:17;100402.59;;;18.16;49.27
26563;BME280;14217;50.986;5.826;2023-11-19T06:10:20;100391.59;;;18.23;49.24
26563;BME280;14217;50.986;5.826;2023-11-19T06:15:22;100392.00;;;18.16;49.39
26563;BME280;14217;50.986;5.826;2023-11-19T06:20:25;100393.09;;;18.12;49.26
26563;BME280;14217;50.986;5.826;2023-11-19T06:25:27;100390.19;;;18.16;49.27
26563;BME280;14217;50.986;5.826;2023-11-19T06:30:29;100390.25;;;18.15;49.30
26563;BME280;14217;50.986;5.826;2023-11-19T06:35:33;100401.59;;;18.18;49.20
26563;BME280;14217;50.986;5.826;2023-11-19T06:40:38;100399.09;;;18.15;49.30
26563;BME280;14217;50.986;5.826;2023-11-19T06:45:41;100399.94;;;18.16;49.20
26563;BME280;14217;50.986;5.826;2023-11-19T06:50:43;100402.38;;;18.20;49.09
26563;BME280;14217;50.986;5.826;2023-11-19T06:55:46;100407.91;;;18.16;49.32
26563;BME280;14217;50.986;5.826;2023-11-19T07:00:48;100408.81;;;18.15;49.35
26563;BME280;14217;50.986;5.826;2023-11-19T07:05:51;100403.47;;;18.16;49.17
26563;BME280;14217;50.986;5.826;2023-11-19T07:10:54;100407.91;;;18.16;49.33
26563;BME280;14217;50.986;5.826;2023-11-19T07:15:56;100408.81;;;18.15;49.45
26563;BME280;14217;50.986;5.826;2023-11-19T07:20:58;100415.63;;;18.20;49.30
26563;BME280;14217;50.986;5.826;2023-11-19T07:26:04;100423.81;;;18.16;49.27
26563;BME280;14217;50.986;5.826;2023-11-19T07:31:06;100432.56;;;18.18;49.14
26563;BME280;14217;50.986;5.826;2023-11-19T07:36:12;100426.47;;;18.16;49.37
26563;BME280;14217;50.986;5.826;2023-11-19T07:41:14;100443.22;;;18.16;49.10
26563;BME280;14217;50.986;5.826;2023-11-19T07:46:16;100446.81;;;18.15;49.24
26563;BME280;14217;50.986;5.826;2023-11-19T07:51:21;100466.25;;;18.16;49.33
26563;BME280;14217;50.986;5.826;2023-11-19T07:56:23;100466.25;;;18.16;49.35
26563;BME280;14217;50.986;5.826;2023-11-19T08:01:25;100450.03;;;18.22;49.76
26563;BME280;14217;50.986;5.826;2023-11-19T08:06:27;100478.13;;;18.26;49.68
26563;BME280;14217;50.986;5.826;2023-11-19T08:11:29;100461.13;;;18.30;49.37
26563;BME280;14217;50.986;5.826;2023-11-19T08:16:31;100464.69;;;18.29;49.68
26563;BME280;14217;50.986;5.826;2023-11-19T08:21:33;100460.16;;;18.31;49.35
26563;BME280;14217;50.986;5.826;2023-11-19T08:26:35;100465.47;;;18.31;49.48
26563;BME280;14217;50.986;5.826;2023-11-19T08:31:38;100487.72;;;18.28;49.83
26563;BME280;14217;50.986;5.826;2023-11-19T08:36:39;100493.78;;;18.31;49.39
26563;BME280;14217;50.986;5.826;2023-11-19T08:41:42;100484.03;;;18.31;49.45
26563;BME280;14217;50.986;5.826;2023-11-19T08:46:50;100484.88;;;18.32;49.48
26563;BME280;14217;50.986;5.826;2023-11-19T08:51:52;100470.78;;;18.31;49.25
26563;BME280;14217;50.986;5.826;2023-11-19T08:56:54;100481.47;;;18.29;49.61
26563;BME280;14217;50.986;5.826;2023-11-19T09:01:56;100468.06;;;18.33;49.39
26563;BME280;14217;50.986;5.826;2023-11-19T09:07:01;100471.56;;;18.33;49.25
26563;BME280;14217;50.986;5.826;2023-11-19T09:12:05;100488.25;;;18.35;49.02
26563;BME280;14217;50.986;5.826;2023-11-19T09:17:07;100498.09;;;18.33;49.12
26563;BME280;14217;50.986;5.826;2023-11-19T09:22:09;100484.03;;;18.31;50.68
26563;BME280;14217;50.986;5.826;2023-11-19T09:27:11;100482.19;;;18.33;50.11
26563;BME280;14217;50.986;5.826;2023-11-19T09:32:13;100498.88;;;18.35;50.66
26563;BME280;14217;50.986;5.826;2023-11-19T09:37:15;100486.31;;;18.39;50.61
26563;BME280;14217;50.986;5.826;2023-11-19T09:42:20;100472.06;;;18.05;52.39
26563;BME280;14217;50.986;5.826;2023-11-19T09:47:23;100490.63;;;18.41;51.50
26563;BME280;14217;50.986;5.826;2023-11-19T09:52:26;100479.28;;;18.38;51.72
26563;BME280;14217;50.986;5.826;2023-11-19T09:57:32;100467.03;;;18.18;49.83
26563;BME280;14217;50.986;5.826;2023-11-19T10:02:34;100478.06;;;18.08;50.00
26563;BME280;14217;50.986;5.826;2023-11-19T10:07:38;100459.78;;;18.02;50.37
26563;BME280;14217;50.986;5.826;2023-11-19T10:12:40;100472.50;;;17.96;50.26
26563;BME280;14217;50.986;5.826;2023-11-19T10:17:58;100494.56;;;17.96;50.25
26563;BME280;14217;50.986;5.826;2023-11-19T10:23:00;100476.81;;;17.98;50.52
26563;BME280;14217;50.986;5.826;2023-11-19T10:28:03;100469.81;;;18.15;51.74
26563;BME280;14217;50.986;5.826;2023-11-19T10:38:14;100466.78;;;18.22;51.27
26563;BME280;14217;50.986;5.826;2023-11-19T10:43:20;100471.63;;;18.32;51.09
26563;BME280;14217;50.986;5.826;2023-11-19T10:48:24;100457.69;;;18.28;50.80
26563;BME280;14217;50.986;5.826;2023-11-19T10:53:27;100467.22;;;18.32;50.86
26563;BME280;14217;50.986;5.826;2023-11-19T10:58:32;100472.13;;;18.40;50.32
26563;BME280;14217;50.986;5.826;2023-11-19T11:03:39;100464.44;;;18.16;51.03
26563;BME280;14217;50.986;5.826;2023-11-19T11:08:42;100458.81;;;18.05;51.06
26563;BME280;14217;50.986;5.826;2023-11-19T11:13:46;100466.88;;;18.38;50.40
26563;BME280;14217;50.986;5.826;2023-11-19T11:18:49;100454.41;;;18.40;50.29
26563;BME280;14217;50.986;5.826;2023-11-19T11:40:15;100442.81;;;18.43;52.87
26563;BME280;14217;50.986;5.826;2023-11-19T11:45:18;100446.78;;;18.52;52.43
26563;BME280;14217;50.986;5.826;2023-11-19T11:50:54;100442.50;;;18.49;52.33
26563;BME280;14217;50.986;5.826;2023-11-19T11:55:57;100434.84;;;18.43;52.33
26563;BME280;14217;50.986;5.826;2023-11-19T12:01:02;100439.13;;;18.45;51.95
26563;BME280;14217;50.986;5.826;2023-11-19T12:06:04;100430.75;;;18.36;51.97
26563;BME280;14217;50.986;5.826;2023-11-19T12:11:06;100423.88;;;18.32;51.92
26563;BME280;14217;50.986;5.826;2023-11-19T12:16:10;100427.50;;;18.31;52.12
26563;BME280;14217;50.986;5.826;2023-11-19T12:21:27;100413.38;;;18.30;51.97
26563;BME280;14217;50.986;5.826;2023-11-19T12:26:34;100415.09;;;18.31;52.03
26563;BME280;14217;50.986;5.826;2023-11-19T12:31:37;100393.63;;;18.18;50.30
26563;BME280;14217;50.986;5.826;2023-11-19T12:36:40;100398.56;;;18.26;50.63
26563;BME280;14217;50.986;5.826;2023-11-19T12:42:00;100401.03;;;18.12;50.77
26563;BME280;14217;50.986;5.826;2023-11-19T12:47:04;100390.13;;;18.18;50.27
26563;BME280;14217;50.986;5.826;2023-11-19T12:52:13;100394.16;;;18.07;50.60
26563;BME280;14217;50.986;5.826;2023-11-19T12:57:16;100388.88;;;18.07;50.74
26563;BME280;14217;50.986;5.826;2023-11-19T13:02:18;100377.09;;;18.13;50.55
26563;BME280;14217;50.986;5.826;2023-11-19T13:07:21;100390.09;;;18.00;51.00
26563;BME280;14217;50.986;5.826;2023-11-19T13:12:23;100400.78;;;17.99;50.94
26563;BME280;14217;50.986;5.826;2023-11-19T13:17:25;100400.78;;;17.99;50.89
26563;BME280;14217;50.986;5.826;2023-11-19T13:22:28;100379.81;;;17.94;50.70
26563;BME280;14217;50.986;5.826;2023-11-19T13:27:30;100369.34;;;17.91;50.95
26563;BME280;14217;50.986;5.826;2023-11-19T13:32:32;100387.28;;;17.86;50.91
26563;BME280;14217;50.986;5.826;2023-11-19T13:37:34;100364.34;;;17.85;51.06
26563;BME280;14217;50.986;5.826;2023-11-19T13:42:37;100371.50;;;17.83;52.00
26563;BME280;14217;50.986;5.826;2023-11-19T13:47:45;100373.75;;;18.10;53.26
26563;BME280;14217;50.986;5.826;2023-11-19T13:52:48;100376.09;;;18.16;52.59
26563;BME280;14217;50.986;5.826;2023-11-19T13:57:50;100382.31;;;18.15;52.56
26563;BME280;14217;50.986;5.826;2023-11-19T14:02:52;100375.31;;;18.14;51.35
26563;BME280;14217;50.986;5.826;2023-11-19T14:07:54;100373.56;;;18.13;51.47
26563;BME280;14217;50.986;5.826;2023-11-19T14:12:58;100367.28;;;18.15;51.56
26563;BME280;14217;50.986;5.826;2023-11-19T14:18:00;100358.56;;;18.13;51.15
26563;BME280;14217;50.986;5.826;2023-11-19T14:23:02;100366.41;;;18.15;51.30
26563;BME280;14217;50.986;5.826;2023-11-19T14:28:04;100377.88;;;18.15;51.29
26563;BME280;14217;50.986;5.826;2023-11-19T14:33:07;100374.28;;;18.16;51.17
26563;BME280;14217;50.986;5.826;2023-11-19T14:38:09;100357.28;;;18.20;51.48
26563;BME280;14217;50.986;5.826;2023-11-19T14:43:11;100368.06;;;18.17;51.25
26563;BME280;14217;50.986;5.826;2023-11-19T14:48:13;100349.25;;;18.22;51.36
26563;BME280;14217;50.986;5.826;2023-11-19T14:53:16;100365.06;;;18.23;51.20
26563;BME280;14217;50.986;5.826;2023-11-19T14:58:18;100360.66;;;18.24;50.92
26563;BME280;14217;50.986;5.826;2023-11-19T15:03:20;100355.19;;;18.27;51.04
26563;BME280;14217;50.986;5.826;2023-11-19T15:08:22;100347.41;;;18.24;50.98
26563;BME280;14217;50.986;5.826;2023-11-19T15:13:24;100342.69;;;18.29;50.66
26563;BME280;14217;50.986;5.826;2023-11-19T15:18:26;100329.44;;;18.29;50.75
26563;BME280;14217;50.986;5.826;2023-11-19T15:23:29;100326.66;;;18.32;50.74
26563;BME280;14217;50.986;5.826;2023-11-19T15:28:31;100323.22;;;18.30;50.86
26563;BME280;14217;50.986;5.826;2023-11-19T15:33:33;100328.53;;;18.30;50.95
26563;BME280;14217;50.986;5.826;2023-11-19T15:38:35;100314.69;;;18.41;50.64
26563;BME280;14217;50.986;5.826;2023-11-19T15:43:54;100322.00;;;18.36;50.95
26563;BME280;14217;50.986;5.826;2023-11-19T15:48:56;100322.91;;;18.36;50.67
26563;BME280;14217;50.986;5.826;2023-11-19T15:53:59;100323.03;;;18.33;50.95
26563;BME280;14217;50.986;5.826;2023-11-19T15:59:01;100325.56;;;18.36;50.59
26563;BME280;14217;50.986;5.826;2023-11-19T16:04:03;100321.94;;;18.37;51.07
26563;BME280;14217;50.986;5.826;2023-11-19T16:09:05;100322.22;;;18.48;50.41
26563;BME280;14217;50.986;5.826;2023-11-19T16:14:07;100328.94;;;18.38;50.77
26563;BME280;14217;50.986;5.826;2023-11-19T16:19:09;100319.47;;;18.34;50.68
26563;BME280;14217;50.986;5.826;2023-11-19T16:24:11;100325.63;;;18.35;50.86
26563;BME280;14217;50.986;5.826;2023-11-19T16:29:13;100338.94;;;18.33;50.86
26563;BME280;14217;50.986;5.826;2023-11-19T16:34:15;100330.84;;;18.36;50.73
26563;BME280;14217;50.986;5.826;2023-11-19T16:39:17;100337.25;;;18.32;50.79
26563;BME280;14217;50.986;5.826;2023-11-19T16:44:19;100328.94;;;18.38;50.71
26563;BME280;14217;50.986;5.826;2023-11-19T16:49:22;100333.50;;;18.36;50.96
26563;BME280;14217;50.986;5.826;2023-11-19T16:54:24;100337.09;;;18.35;51.08
26563;BME280;14217;50.986;5.826;2023-11-19T16:59:26;100341.47;;;18.36;50.79
26563;BME280;14217;50.986;5.826;2023-11-19T17:04:29;100339.56;;;18.38;50.64
26563;BME280;14217;50.986;5.826;2023-11-19T17:09:31;100332.47;;;18.39;50.49
26563;BME280;14217;50.986;5.826;2023-11-19T17:14:33;100340.50;;;18.37;50.89
26563;BME280;14217;50.986;5.826;2023-11-19T17:19:41;100343.78;;;18.42;50.69
26563;BME280;14217;50.986;5.826;2023-11-19T17:24:43;100336.75;;;18.41;50.53
26563;BME280;14217;50.986;5.826;2023-11-19T17:29:45;100347.50;;;18.38;50.70
26563;BME280;14217;50.986;5.826;2023-11-19T17:34:48;100356.25;;;18.40;50.60
26563;BME280;14217;50.986;5.826;2023-11-19T17:39:50;100358.84;;;18.42;50.53
26563;BME280;14217;50.986;5.826;2023-11-19T17:44:54;100346.53;;;18.41;50.60
26563;BME280;14217;50.986;5.826;2023-11-19T17:50:00;100348.28;;;18.40;50.41
26563;BME280;14217;50.986;5.826;2023-11-19T17:55:24;100341.91;;;18.44;50.39
26563;BME280;14217;50.986;5.826;2023-11-19T18:00:26;100332.47;;;18.39;50.30
26563;BME280;14217;50.986;5.826;2023-11-19T18:05:29;100343.16;;;18.37;50.71
26563;BME280;14217;50.986;5.826;2023-11-19T18:10:32;100361.41;;;18.43;50.37
26563;BME280;14217;50.986;5.826;2023-11-19T18:15:35;100342.13;;;18.40;50.70
26563;BME280;14217;50.986;5.826;2023-11-19T18:20:38;100333.16;;;18.42;50.66
26563;BME280;14217;50.986;5.826;2023-11-19T18:25:40;100339.16;;;18.46;51.26
26563;BME280;14217;50.986;5.826;2023-11-19T18:30:42;100334.59;;;18.32;52.11
26563;BME280;14217;50.986;5.826;2023-11-19T18:35:44;100323.00;;;18.51;51.78
26563;BME280;14217;50.986;5.826;2023-11-19T18:40:46;100341.75;;;18.47;51.78
26563;BME280;14217;50.986;5.826;2023-11-19T18:45:48;100334.25;;;18.56;51.36
26563;BME280;14217;50.986;5.826;2023-11-19T18:50:50;100346.03;;;18.50;51.45
26563;BME280;14217;50.986;5.826;2023-11-19T18:55:54;100347.06;;;18.47;51.25
26563;BME280;14217;50.986;5.826;2023-11-19T19:00:56;100334.50;;;18.51;51.38
26563;BME280;14217;50.986;5.826;2023-11-19T19:05:58;100343.44;;;18.48;51.26
26563;BME280;14217;50.986;5.826;2023-11-19T19:11:00;100336.38;;;18.49;51.25
26563;BME280;14217;50.986;5.826;2023-11-19T19:16:07;100332.06;;;18.46;51.35
26563;BME280;14217;50.986;5.826;2023-11-19T19:21:09;100325.19;;;18.42;51.21
26563;BME280;14217;50.986;5.826;2023-11-19T19:26:12;100326.28;;;18.56;51.09
26563;BME280;14217;50.986;5.826;2023-11-19T19:31:15;100328.25;;;18.52;51.28
26563;BME280;14217;50.986;5.826;2023-11-19T19:36:20;100340.22;;;18.59;50.97
26563;BME280;14217;50.986;5.826;2023-11-19T19:41:23;100334.34;;;18.37;52.66
26563;BME280;14217;50.986;5.826;2023-11-19T19:46:25;100338.97;;;18.16;55.46
26563;BME280;14217;50.986;5.826;2023-11-19T19:51:30;100330.47;;;18.09;55.94
26563;BME280;14217;50.986;5.826;2023-11-19T19:56:32;100324.44;;;18.40;54.59
26563;BME280;14217;50.986;5.826;2023-11-19T20:01:34;100346.66;;;18.55;53.67
26563;BME280;14217;50.986;5.826;2023-11-19T20:06:37;100344.69;;;18.59;53.44
26563;BME280;14217;50.986;5.826;2023-11-19T20:11:40;100340.41;;;18.56;53.44
26563;BME280;14217;50.986;5.826;2023-11-19T20:16:45;100353.50;;;18.59;53.22
26563;BME280;14217;50.986;5.826;2023-11-19T20:21:47;100349.84;;;18.62;53.25
26563;BME280;14217;50.986;5.826;2023-11-19T20:26:50;100345.53;;;18.59;52.96
26563;BME280;14217;50.986;5.826;2023-11-19T20:31:55;100358.19;;;18.54;52.85
26563;BME280;14217;50.986;5.826;2023-11-19T20:36:57;100350.16;;;18.56;52.65
26563;BME280;14217;50.986;5.826;2023-11-19T20:42:00;100344.63;;;18.60;52.40
26563;BME280;14217;50.986;5.826;2023-11-19T20:47:02;100355.16;;;18.62;52.48
26563;BME280;14217;50.986;5.826;2023-11-19T20:52:06;100352.81;;;18.56;52.50
26563;BME280;14217;50.986;5.826;2023-11-19T20:57:10;100361.38;;;18.61;52.60
26563;BME280;14217;50.986;5.826;2023-11-19T21:02:13;100361.31;;;18.62;52.67
26563;BME280;14217;50.986;5.826;2023-11-19T21:07:17;100374.97;;;18.55;52.48
26563;BME280;14217;50.986;5.826;2023-11-19T21:12:19;100380.81;;;18.61;52.15
26563;BME280;14217;50.986;5.826;2023-11-19T21:17:21;100379.97;;;18.61;52.42
26563;BME280;14217;50.986;5.826;2023-11-19T21:22:24;100394.19;;;18.60;52.03
26563;BME280;14217;50.986;5.826;2023-11-19T21:27:27;100369.34;;;18.61;52.29
26563;BME280;14217;50.986;5.826;2023-11-19T21:32:31;100378.81;;;18.32;54.47
26563;BME280;14217;50.986;5.826;2023-11-19T21:37:34;100382.47;;;18.12;55.53
26563;BME280;14217;50.986;5.826;2023-11-19T21:42:36;100380.06;;;18.07;55.88
26563;BME280;14217;50.986;5.826;2023-11-19T21:47:39;100379.97;;;18.43;54.72
26563;BME280;14217;50.986;5.826;2023-11-19T21:52:41;100380.66;;;18.64;53.83
26563;BME280;14217;50.986;5.826;2023-11-19T21:57:43;100370.19;;;18.61;54.08
26563;BME280;14217;50.986;5.826;2023-11-19T22:02:45;100360.47;;;18.62;53.79
26563;BME280;14217;50.986;5.826;2023-11-19T22:07:47;100373.72;;;18.62;53.37
26563;BME280;14217;50.986;5.826;2023-11-19T22:12:49;100380.13;;;18.58;53.49
26563;BME280;14217;50.986;5.826;2023-11-19T22:17:52;100381.06;;;18.57;53.33
26563;BME280;14217;50.986;5.826;2023-11-19T22:22:55;100383.63;;;18.58;53.15
26563;BME280;14217;50.986;5.826;2023-11-19T22:27:57;100376.69;;;18.56;52.98
26563;BME280;14217;50.986;5.826;2023-11-19T22:32:59;100384.56;;;18.57;52.92
26563;BME280;14217;50.986;5.826;2023-11-19T22:38:02;100377.63;;;18.55;52.62
26563;BME280;14217;50.986;5.826;2023-11-19T22:43:04;100386.28;;;18.58;52.61
26563;BME280;14217;50.986;5.826;2023-11-19T22:48:06;100373.94;;;18.57;52.49
26563;BME280;14217;50.986;5.826;2023-11-19T22:53:08;100383.88;;;18.54;52.66
26563;BME280;14217;50.986;5.826;2023-11-19T22:58:10;100375.84;;;18.55;52.29
26563;BME280;14217;50.986;5.826;2023-11-19T23:03:14;100374.13;;;18.54;52.50
26563;BME280;14217;50.986;5.826;2023-11-19T23:08:16;100368.81;;;18.54;52.47
26563;BME280;14217;50.986;5.826;2023-11-19T23:13:18;100370.75;;;18.51;52.13
26563;BME280;14217;50.986;5.826;2023-11-19T23:18:20;100368.63;;;18.57;51.83
26563;BME280;14217;50.986;5.826;2023-11-19T23:23:24;100386.59;;;18.52;52.26
26563;BME280;14217;50.986;5.826;2023-11-19T23:28:26;100372.31;;;18.55;51.81
26563;BME280;14217;50.986;5.826;2023-11-19T23:33:28;100383.03;;;18.53;51.86
26563;BME280;14217;50.986;5.826;2023-11-19T23:38:30;100386.78;;;18.49;52.18
26563;BME280;14217;50.986;5.826;2023-11-19T23:43:32;100391.06;;;18.52;52.01
26563;BME280;14217;50.986;5.826;2023-11-19T23:48:35;100398.06;;;18.53;51.93
26563;BME280;14217;50.986;5.826;2023-11-19T23:53:57;100404.25;;;18.53;51.69
26563;BME280;14217;50.986;5.826;2023-11-19T23:58:59;100402.53;;;18.52;51.90
